Terminal Aerodrome Forecast
Issued by NWS

Home | Current Version | Previous Version | Text Only | Print | Product List | Glossary On
Versions: 1 2 3 4 5 6 7 8 9 10 11 12 13 14 15 16 17 18 19 20 21 22 23 24 25 26 27 28 29 30 31 32 33 34
000
FTUS43 KLOT 080545
TAFORD
TAF
KORD 080545Z 0806/0912 03005KT P6SM BKN250
     FM081400 06008KT P6SM VCSH SCT040 BKN200
     FM081800 09007KT P6SM BKN035 BKN150
     FM082200 09008KT P6SM -RA OVC025
     FM090000 08008KT 4SM RA BR OVC015
     FM090600 02007KT 4SM -RA BR OVC010=

USA.gov is the U.S. government's official web portal to all federal, state and local government web resources and services.